sensor_id;sensor_type;location;lat;lon;timestamp;P1;durP1;ratioP1;P2;durP2;ratioP2
22026;SDS011;11177;50.966;10.070;2023-03-11T00:00:25;2.95;;;2.17;;
22026;SDS011;11177;50.966;10.070;2023-03-11T00:02:54;3.00;;;2.33;;
22026;SDS011;11177;50.966;10.070;2023-03-11T00:05:23;2.60;;;2.30;;
22026;SDS011;11177;50.966;10.070;2023-03-11T00:07:52;2.65;;;2.17;;
22026;SDS011;11177;50.966;10.070;2023-03-11T00:10:21;2.70;;;2.20;;
22026;SDS011;11177;50.966;10.070;2023-03-11T00:12:49;3.05;;;2.20;;
22026;SDS011;11177;50.966;10.070;2023-03-11T00:15:16;3.53;;;2.33;;
22026;SDS011;11177;50.966;10.070;2023-03-11T00:17:44;3.15;;;2.00;;
22026;SDS011;11177;50.966;10.070;2023-03-11T00:20:21;2.17;;;1.98;;
22026;SDS011;11177;50.966;10.070;2023-03-11T00:22:55;2.70;;;2.00;;
22026;SDS011;11177;50.966;10.070;2023-03-11T00:25:24;2.72;;;1.85;;
22026;SDS011;11177;50.966;10.070;2023-03-11T00:27:52;2.70;;;2.17;;
22026;SDS011;11177;50.966;10.070;2023-03-11T00:30:19;3.08;;;2.20;;
22026;SDS011;11177;50.966;10.070;2023-03-11T00:32:49;2.13;;;1.90;;
22026;SDS011;11177;50.966;10.070;2023-03-11T00:35:18;2.65;;;2.17;;
22026;SDS011;11177;50.966;10.070;2023-03-11T00:37:47;2.58;;;1.98;;
22026;SDS011;11177;50.966;10.070;2023-03-11T00:40:16;4.05;;;2.60;;
22026;SDS011;11177;50.966;10.070;2023-03-11T00:42:44;2.45;;;1.88;;
22026;SDS011;11177;50.966;10.070;2023-03-11T00:45:11;2.78;;;1.85;;
22026;SDS011;11177;50.966;10.070;2023-03-11T00:47:38;2.00;;;1.80;;
22026;SDS011;11177;50.966;10.070;2023-03-11T00:50:06;2.55;;;2.00;;
22026;SDS011;11177;50.966;10.070;2023-03-11T00:52:35;2.97;;;2.08;;
22026;SDS011;11177;50.966;10.070;2023-03-11T00:55:02;2.90;;;2.20;;
22026;SDS011;11177;50.966;10.070;2023-03-11T00:57:32;4.78;;;2.08;;
22026;SDS011;11177;50.966;10.070;2023-03-11T01:00:01;2.05;;;1.63;;
22026;SDS011;11177;50.966;10.070;2023-03-11T01:02:29;1.70;;;1.58;;
22026;SDS011;11177;50.966;10.070;2023-03-11T01:04:58;2.00;;;1.75;;
22026;SDS011;11177;50.966;10.070;2023-03-11T01:07:30;2.30;;;1.90;;
22026;SDS011;11177;50.966;10.070;2023-03-11T01:09:59;3.15;;;1.90;;
22026;SDS011;11177;50.966;10.070;2023-03-11T01:12:26;2.05;;;1.85;;
22026;SDS011;11177;50.966;10.070;2023-03-11T01:14:57;2.63;;;2.10;;
22026;SDS011;11177;50.966;10.070;2023-03-11T01:17:25;2.65;;;2.10;;
22026;SDS011;11177;50.966;10.070;2023-03-11T01:19:55;2.47;;;2.03;;
22026;SDS011;11177;50.966;10.070;2023-03-11T01:22:22;2.45;;;1.90;;
22026;SDS011;11177;50.966;10.070;2023-03-11T01:24:50;2.67;;;2.13;;
22026;SDS011;11177;50.966;10.070;2023-03-11T01:27:22;3.40;;;1.95;;
22026;SDS011;11177;50.966;10.070;2023-03-11T01:29:50;2.70;;;2.05;;
22026;SDS011;11177;50.966;10.070;2023-03-11T01:32:18;3.33;;;1.70;;
22026;SDS011;11177;50.966;10.070;2023-03-11T01:34:45;2.50;;;1.92;;
22026;SDS011;11177;50.966;10.070;2023-03-11T01:37:14;2.47;;;2.00;;
22026;SDS011;11177;50.966;10.070;2023-03-11T01:39:42;2.20;;;1.60;;
22026;SDS011;11177;50.966;10.070;2023-03-11T01:42:09;2.45;;;1.83;;
22026;SDS011;11177;50.966;10.070;2023-03-11T01:44:36;2.45;;;1.90;;
22026;SDS011;11177;50.966;10.070;2023-03-11T01:49:59;2.40;;;1.58;;
22026;SDS011;11177;50.966;10.070;2023-03-11T01:52:27;1.90;;;1.60;;
22026;SDS011;11177;50.966;10.070;2023-03-11T01:54:55;2.35;;;1.63;;
22026;SDS011;11177;50.966;10.070;2023-03-11T01:57:23;1.67;;;1.58;;
22026;SDS011;11177;50.966;10.070;2023-03-11T01:59:52;1.77;;;1.40;;
22026;SDS011;11177;50.966;10.070;2023-03-11T02:02:31;2.22;;;1.70;;
22026;SDS011;11177;50.966;10.070;2023-03-11T02:05:01;1.77;;;1.50;;
22026;SDS011;11177;50.966;10.070;2023-03-11T02:07:28;1.90;;;1.45;;
22026;SDS011;11177;50.966;10.070;2023-03-11T02:09:55;5.65;;;1.60;;
22026;SDS011;11177;50.966;10.070;2023-03-11T02:12:21;3.00;;;1.52;;
22026;SDS011;11177;50.966;10.070;2023-03-11T02:14:49;2.15;;;1.73;;
22026;SDS011;11177;50.966;10.070;2023-03-11T02:17:17;2.55;;;1.80;;
22026;SDS011;11177;50.966;10.070;2023-03-11T02:22:48;2.28;;;1.83;;
22026;SDS011;11177;50.966;10.070;2023-03-11T02:28:04;2.97;;;1.60;;
22026;SDS011;11177;50.966;10.070;2023-03-11T02:30:33;2.78;;;1.70;;
22026;SDS011;11177;50.966;10.070;2023-03-11T02:33:00;2.10;;;1.70;;
22026;SDS011;11177;50.966;10.070;2023-03-11T02:35:27;1.60;;;1.50;;
22026;SDS011;11177;50.966;10.070;2023-03-11T02:37:54;1.70;;;1.50;;
22026;SDS011;11177;50.966;10.070;2023-03-11T02:40:32;2.20;;;1.50;;
22026;SDS011;11177;50.966;10.070;2023-03-11T02:43:05;2.80;;;1.52;;
22026;SDS011;11177;50.966;10.070;2023-03-11T02:45:34;1.40;;;1.30;;
22026;SDS011;11177;50.966;10.070;2023-03-11T02:48:01;1.33;;;1.23;;
22026;SDS011;11177;50.966;10.070;2023-03-11T02:50:28;1.77;;;1.27;;
22026;SDS011;11177;50.966;10.070;2023-03-11T02:52:55;1.55;;;1.45;;
22026;SDS011;11177;50.966;10.070;2023-03-11T02:55:22;1.65;;;1.20;;
22026;SDS011;11177;50.966;10.070;2023-03-11T02:57:49;1.38;;;1.27;;
22026;SDS011;11177;50.966;10.070;2023-03-11T03:00:16;2.15;;;1.38;;
22026;SDS011;11177;50.966;10.070;2023-03-11T03:02:43;2.33;;;1.90;;
22026;SDS011;11177;50.966;10.070;2023-03-11T03:05:10;2.38;;;1.80;;
22026;SDS011;11177;50.966;10.070;2023-03-11T03:07:38;2.75;;;1.67;;
22026;SDS011;11177;50.966;10.070;2023-03-11T03:10:05;3.75;;;1.67;;
22026;SDS011;11177;50.966;10.070;2023-03-11T03:12:32;2.42;;;1.30;;
22026;SDS011;11177;50.966;10.070;2023-03-11T03:14:59;1.88;;;1.40;;
22026;SDS011;11177;50.966;10.070;2023-03-11T03:17:25;2.03;;;1.58;;
22026;SDS011;11177;50.966;10.070;2023-03-11T03:19:52;2.10;;;1.70;;
22026;SDS011;11177;50.966;10.070;2023-03-11T03:22:19;2.50;;;1.50;;
22026;SDS011;11177;50.966;10.070;2023-03-11T03:24:45;3.45;;;1.80;;
22026;SDS011;11177;50.966;10.070;2023-03-11T03:27:12;3.47;;;1.88;;
22026;SDS011;11177;50.966;10.070;2023-03-11T03:29:39;2.20;;;1.60;;
22026;SDS011;11177;50.966;10.070;2023-03-11T03:32:05;1.73;;;1.55;;
22026;SDS011;11177;50.966;10.070;2023-03-11T03:34:33;3.05;;;1.55;;
22026;SDS011;11177;50.966;10.070;2023-03-11T03:36:59;2.28;;;1.60;;
22026;SDS011;11177;50.966;10.070;2023-03-11T03:39:26;2.80;;;1.65;;
22026;SDS011;11177;50.966;10.070;2023-03-11T03:41:55;2.95;;;1.50;;
22026;SDS011;11177;50.966;10.070;2023-03-11T03:44:22;2.08;;;1.45;;
22026;SDS011;11177;50.966;10.070;2023-03-11T03:46:49;2.35;;;1.50;;
22026;SDS011;11177;50.966;10.070;2023-03-11T03:49:15;5.43;;;1.73;;
22026;SDS011;11177;50.966;10.070;2023-03-11T03:51:42;4.20;;;1.67;;
22026;SDS011;11177;50.966;10.070;2023-03-11T03:54:09;2.35;;;1.45;;
22026;SDS011;11177;50.966;10.070;2023-03-11T03:56:35;1.55;;;1.30;;
22026;SDS011;11177;50.966;10.070;2023-03-11T03:59:02;1.60;;;1.30;;
22026;SDS011;11177;50.966;10.070;2023-03-11T04:01:29;2.55;;;1.40;;
22026;SDS011;11177;50.966;10.070;2023-03-11T04:03:56;2.13;;;1.20;;
22026;SDS011;11177;50.966;10.070;2023-03-11T04:06:23;2.92;;;1.48;;
22026;SDS011;11177;50.966;10.070;2023-03-11T04:08:51;2.83;;;1.27;;
22026;SDS011;11177;50.966;10.070;2023-03-11T04:11:18;3.00;;;1.50;;
22026;SDS011;11177;50.966;10.070;2023-03-11T04:13:45;1.60;;;1.50;;
22026;SDS011;11177;50.966;10.070;2023-03-11T04:16:16;2.83;;;1.35;;
22026;SDS011;11177;50.966;10.070;2023-03-11T04:18:44;1.65;;;1.20;;
22026;SDS011;11177;50.966;10.070;2023-03-11T04:21:11;2.80;;;1.42;;
22026;SDS011;11177;50.966;10.070;2023-03-11T04:23:37;3.33;;;1.45;;
22026;SDS011;11177;50.966;10.070;2023-03-11T04:26:04;2.53;;;1.40;;
22026;SDS011;11177;50.966;10.070;2023-03-11T04:28:31;2.28;;;1.45;;
22026;SDS011;11177;50.966;10.070;2023-03-11T04:30:58;3.13;;;1.52;;
22026;SDS011;11177;50.966;10.070;2023-03-11T04:33:24;3.05;;;1.70;;
22026;SDS011;11177;50.966;10.070;2023-03-11T04:35:51;4.28;;;2.00;;
22026;SDS011;11177;50.966;10.070;2023-03-11T04:38:18;2.40;;;1.63;;
22026;SDS011;11177;50.966;10.070;2023-03-11T04:40:45;3.42;;;1.90;;
22026;SDS011;11177;50.966;10.070;2023-03-11T04:43:12;3.72;;;1.60;;
22026;SDS011;11177;50.966;10.070;2023-03-11T04:45:38;5.78;;;2.00;;
22026;SDS011;11177;50.966;10.070;2023-03-11T04:48:05;2.53;;;1.70;;
22026;SDS011;11177;50.966;10.070;2023-03-11T04:50:32;1.85;;;1.60;;
22026;SDS011;11177;50.966;10.070;2023-03-11T04:52:59;3.70;;;1.70;;
22026;SDS011;11177;50.966;10.070;2023-03-11T04:55:26;2.50;;;1.92;;
22026;SDS011;11177;50.966;10.070;2023-03-11T04:57:52;3.90;;;2.00;;
22026;SDS011;11177;50.966;10.070;2023-03-11T05:00:19;3.33;;;2.08;;
22026;SDS011;11177;50.966;10.070;2023-03-11T05:02:50;4.82;;;2.15;;
22026;SDS011;11177;50.966;10.070;2023-03-11T05:05:17;3.35;;;1.92;;
22026;SDS011;11177;50.966;10.070;2023-03-11T05:07:44;2.35;;;1.88;;
22026;SDS011;11177;50.966;10.070;2023-03-11T05:10:12;4.10;;;1.80;;
22026;SDS011;11177;50.966;10.070;2023-03-11T05:12:39;2.65;;;2.00;;
22026;SDS011;11177;50.966;10.070;2023-03-11T05:15:06;2.35;;;1.90;;
22026;SDS011;11177;50.966;10.070;2023-03-11T05:17:33;2.70;;;2.25;;
22026;SDS011;11177;50.966;10.070;2023-03-11T05:19:59;4.93;;;2.17;;
22026;SDS011;11177;50.966;10.070;2023-03-11T05:22:26;4.18;;;2.20;;
22026;SDS011;11177;50.966;10.070;2023-03-11T05:24:53;4.40;;;2.38;;
22026;SDS011;11177;50.966;10.070;2023-03-11T05:27:19;5.03;;;2.22;;
22026;SDS011;11177;50.966;10.070;2023-03-11T05:29:46;6.28;;;2.08;;
22026;SDS011;11177;50.966;10.070;2023-03-11T05:32:13;3.65;;;2.28;;
22026;SDS011;11177;50.966;10.070;2023-03-11T05:34:40;4.57;;;2.22;;
22026;SDS011;11177;50.966;10.070;2023-03-11T05:37:07;3.50;;;2.15;;
22026;SDS011;11177;50.966;10.070;2023-03-11T05:39:34;3.90;;;2.20;;
22026;SDS011;11177;50.966;10.070;2023-03-11T05:42:06;4.22;;;2.22;;
22026;SDS011;11177;50.966;10.070;2023-03-11T05:44:33;4.43;;;2.30;;
22026;SDS011;11177;50.966;10.070;2023-03-11T05:47:00;4.80;;;2.60;;
22026;SDS011;11177;50.966;10.070;2023-03-11T05:49:26;5.50;;;2.22;;
22026;SDS011;11177;50.966;10.070;2023-03-11T05:51:53;4.88;;;2.15;;
22026;SDS011;11177;50.966;10.070;2023-03-11T05:54:23;4.22;;;2.20;;
22026;SDS011;11177;50.966;10.070;2023-03-11T05:56:50;4.93;;;2.30;;
22026;SDS011;11177;50.966;10.070;2023-03-11T05:59:17;3.47;;;2.28;;
22026;SDS011;11177;50.966;10.070;2023-03-11T06:01:43;7.70;;;2.20;;
22026;SDS011;11177;50.966;10.070;2023-03-11T06:04:10;5.97;;;2.22;;
22026;SDS011;11177;50.966;10.070;2023-03-11T06:06:37;3.45;;;2.00;;
22026;SDS011;11177;50.966;10.070;2023-03-11T06:09:06;4.68;;;2.35;;
22026;SDS011;11177;50.966;10.070;2023-03-11T06:11:33;5.70;;;2.20;;
22026;SDS011;11177;50.966;10.070;2023-03-11T06:13:59;7.22;;;2.42;;
22026;SDS011;11177;50.966;10.070;2023-03-11T06:16:26;3.45;;;1.95;;
22026;SDS011;11177;50.966;10.070;2023-03-11T06:18:53;3.67;;;1.92;;
22026;SDS011;11177;50.966;10.070;2023-03-11T06:21:21;6.35;;;2.60;;
22026;SDS011;11177;50.966;10.070;2023-03-11T06:23:49;4.85;;;2.25;;
22026;SDS011;11177;50.966;10.070;2023-03-11T06:26:17;5.40;;;2.30;;
22026;SDS011;11177;50.966;10.070;2023-03-11T06:28:45;5.35;;;2.47;;
22026;SDS011;11177;50.966;10.070;2023-03-11T06:33:46;2.65;;;1.80;;
22026;SDS011;11177;50.966;10.070;2023-03-11T06:36:15;7.15;;;2.33;;
22026;SDS011;11177;50.966;10.070;2023-03-11T06:38:42;4.53;;;2.22;;
22026;SDS011;11177;50.966;10.070;2023-03-11T06:41:09;5.13;;;2.00;;
22026;SDS011;11177;50.966;10.070;2023-03-11T06:43:36;4.13;;;2.00;;
22026;SDS011;11177;50.966;10.070;2023-03-11T06:46:37;3.83;;;2.20;;
22026;SDS011;11177;50.966;10.070;2023-03-11T06:48:56;4.60;;;2.13;;
22026;SDS011;11177;50.966;10.070;2023-03-11T06:51:23;2.78;;;1.90;;
22026;SDS011;11177;50.966;10.070;2023-03-11T06:53:51;6.78;;;2.35;;
22026;SDS011;11177;50.966;10.070;2023-03-11T06:56:18;4.93;;;2.13;;
22026;SDS011;11177;50.966;10.070;2023-03-11T06:58:46;4.65;;;2.33;;
22026;SDS011;11177;50.966;10.070;2023-03-11T07:01:14;6.35;;;2.20;;
22026;SDS011;11177;50.966;10.070;2023-03-11T07:03:44;3.97;;;2.40;;
22026;SDS011;11177;50.966;10.070;2023-03-11T07:06:12;8.85;;;2.30;;
22026;SDS011;11177;50.966;10.070;2023-03-11T07:08:41;6.68;;;2.30;;
22026;SDS011;11177;50.966;10.070;2023-03-11T07:13:53;6.30;;;2.47;;
22026;SDS011;11177;50.966;10.070;2023-03-11T07:16:21;4.75;;;2.08;;
22026;SDS011;11177;50.966;10.070;2023-03-11T07:18:54;4.65;;;2.22;;
22026;SDS011;11177;50.966;10.070;2023-03-11T07:21:22;3.28;;;1.73;;
22026;SDS011;11177;50.966;10.070;2023-03-11T07:23:56;2.70;;;1.55;;
22026;SDS011;11177;50.966;10.070;2023-03-11T07:26:25;4.90;;;1.95;;
22026;SDS011;11177;50.966;10.070;2023-03-11T07:28:55;4.75;;;1.90;;
22026;SDS011;11177;50.966;10.070;2023-03-11T07:31:23;10.65;;;3.03;;
22026;SDS011;11177;50.966;10.070;2023-03-11T07:33:51;7.05;;;2.15;;
22026;SDS011;11177;50.966;10.070;2023-03-11T07:36:20;8.48;;;1.70;;
22026;SDS011;11177;50.966;10.070;2023-03-11T07:38:48;7.15;;;1.67;;
22026;SDS011;11177;50.966;10.070;2023-03-11T07:41:15;2.95;;;1.42;;
22026;SDS011;11177;50.966;10.070;2023-03-11T07:46:37;3.67;;;1.60;;
22026;SDS011;11177;50.966;10.070;2023-03-11T07:49:03;5.00;;;1.80;;
22026;SDS011;11177;50.966;10.070;2023-03-11T07:51:31;3.45;;;1.60;;
22026;SDS011;11177;50.966;10.070;2023-03-11T07:53:59;5.55;;;1.55;;
22026;SDS011;11177;50.966;10.070;2023-03-11T07:56:27;4.78;;;1.70;;
22026;SDS011;11177;50.966;10.070;2023-03-11T07:58:56;4.90;;;1.90;;
22026;SDS011;11177;50.966;10.070;2023-03-11T08:01:24;2.70;;;1.70;;
22026;SDS011;11177;50.966;10.070;2023-03-11T08:03:53;5.38;;;1.80;;
22026;SDS011;11177;50.966;10.070;2023-03-11T08:06:25;3.75;;;1.60;;
22026;SDS011;11177;50.966;10.070;2023-03-11T08:08:59;3.20;;;1.33;;
22026;SDS011;11177;50.966;10.070;2023-03-11T08:11:27;7.78;;;1.75;;
22026;SDS011;11177;50.966;10.070;2023-03-11T08:13:55;3.63;;;1.50;;
22026;SDS011;11177;50.966;10.070;2023-03-11T08:16:23;6.22;;;1.42;;
22026;SDS011;11177;50.966;10.070;2023-03-11T08:18:50;4.35;;;1.42;;
22026;SDS011;11177;50.966;10.070;2023-03-11T08:21:19;4.90;;;1.30;;
22026;SDS011;11177;50.966;10.070;2023-03-11T08:23:48;4.47;;;1.35;;
22026;SDS011;11177;50.966;10.070;2023-03-11T08:26:17;2.17;;;1.40;;
22026;SDS011;11177;50.966;10.070;2023-03-11T08:28:45;5.85;;;1.77;;
22026;SDS011;11177;50.966;10.070;2023-03-11T08:33:56;2.95;;;1.42;;
22026;SDS011;11177;50.966;10.070;2023-03-11T08:36:24;3.45;;;1.50;;
22026;SDS011;11177;50.966;10.070;2023-03-11T08:38:51;3.95;;;1.40;;
22026;SDS011;11177;50.966;10.070;2023-03-11T08:41:19;10.10;;;1.70;;
22026;SDS011;11177;50.966;10.070;2023-03-11T08:43:45;3.97;;;1.58;;
22026;SDS011;11177;50.966;10.070;2023-03-11T08:46:16;3.75;;;1.30;;
22026;SDS011;11177;50.966;10.070;2023-03-11T08:49:05;5.65;;;1.60;;
22026;SDS011;11177;50.966;10.070;2023-03-11T08:51:33;4.13;;;1.20;;
22026;SDS011;11177;50.966;10.070;2023-03-11T08:54:00;6.63;;;1.52;;
22026;SDS011;11177;50.966;10.070;2023-03-11T08:56:28;3.05;;;1.45;;
22026;SDS011;11177;50.966;10.070;2023-03-11T08:58:54;4.70;;;1.55;;
22026;SDS011;11177;50.966;10.070;2023-03-11T09:01:21;2.78;;;1.52;;
22026;SDS011;11177;50.966;10.070;2023-03-11T09:03:50;1.98;;;1.27;;
22026;SDS011;11177;50.966;10.070;2023-03-11T09:06:18;3.28;;;1.10;;
22026;SDS011;11177;50.966;10.070;2023-03-11T09:08:56;3.67;;;1.40;;
22026;SDS011;11177;50.966;10.070;2023-03-11T09:11:23;3.72;;;1.10;;
22026;SDS011;11177;50.966;10.070;2023-03-11T09:13:50;3.08;;;1.20;;
22026;SDS011;11177;50.966;10.070;2023-03-11T09:16:18;2.17;;;1.08;;
22026;SDS011;11177;50.966;10.070;2023-03-11T09:18:47;3.65;;;1.10;;
22026;SDS011;11177;50.966;10.070;2023-03-11T09:21:14;3.40;;;1.40;;
22026;SDS011;11177;50.966;10.070;2023-03-11T09:23:41;4.95;;;1.23;;
22026;SDS011;11177;50.966;10.070;2023-03-11T09:26:10;4.28;;;1.30;;
22026;SDS011;11177;50.966;10.070;2023-03-11T09:28:37;3.35;;;0.90;;
22026;SDS011;11177;50.966;10.070;2023-03-11T09:31:04;3.10;;;1.08;;
22026;SDS011;11177;50.966;10.070;2023-03-11T09:33:34;3.35;;;1.02;;
22026;SDS011;11177;50.966;10.070;2023-03-11T09:36:02;2.92;;;1.13;;
22026;SDS011;11177;50.966;10.070;2023-03-11T09:38:29;3.15;;;1.20;;
22026;SDS011;11177;50.966;10.070;2023-03-11T09:41:01;3.28;;;1.00;;
22026;SDS011;11177;50.966;10.070;2023-03-11T09:49:21;6.63;;;1.23;;
22026;SDS011;11177;50.966;10.070;2023-03-11T09:52:14;5.22;;;1.20;;
22026;SDS011;11177;50.966;10.070;2023-03-11T09:54:46;2.33;;;1.20;;
22026;SDS011;11177;50.966;10.070;2023-03-11T09:57:16;2.47;;;1.30;;
22026;SDS011;11177;50.966;10.070;2023-03-11T09:59:45;2.60;;;1.25;;
22026;SDS011;11177;50.966;10.070;2023-03-11T10:02:14;3.15;;;1.30;;
22026;SDS011;11177;50.966;10.070;2023-03-11T10:04:45;4.60;;;1.27;;
22026;SDS011;11177;50.966;10.070;2023-03-11T10:07:17;3.70;;;1.23;;
22026;SDS011;11177;50.966;10.070;2023-03-11T10:09:53;7.70;;;1.17;;
22026;SDS011;11177;50.966;10.070;2023-03-11T10:18:27;2.27;;;0.97;;
22026;SDS011;11177;50.966;10.070;2023-03-11T10:21:00;3.65;;;1.10;;
22026;SDS011;11177;50.966;10.070;2023-03-11T10:26:51;4.63;;;1.25;;
22026;SDS011;11177;50.966;10.070;2023-03-11T10:32:28;3.53;;;1.40;;
22026;SDS011;11177;50.966;10.070;2023-03-11T10:35:14;4.95;;;1.00;;
22026;SDS011;11177;50.966;10.070;2023-03-11T10:40:28;4.60;;;1.10;;
22026;SDS011;11177;50.966;10.070;2023-03-11T10:42:58;3.92;;;0.73;;
22026;SDS011;11177;50.966;10.070;2023-03-11T10:45:26;2.95;;;0.80;;
22026;SDS011;11177;50.966;10.070;2023-03-11T10:47:55;3.92;;;0.73;;
22026;SDS011;11177;50.966;10.070;2023-03-11T10:50:23;4.63;;;1.10;;
22026;SDS011;11177;50.966;10.070;2023-03-11T10:53:06;2.47;;;0.90;;
22026;SDS011;11177;50.966;10.070;2023-03-11T10:55:34;3.55;;;0.90;;
22026;SDS011;11177;50.966;10.070;2023-03-11T10:58:12;3.38;;;0.90;;
22026;SDS011;11177;50.966;10.070;2023-03-11T11:00:41;3.35;;;1.13;;
22026;SDS011;11177;50.966;10.070;2023-03-11T11:03:22;2.28;;;0.88;;
22026;SDS011;11177;50.966;10.070;2023-03-11T11:05:57;3.83;;;1.58;;
22026;SDS011;11177;50.966;10.070;2023-03-11T11:08:29;2.03;;;0.90;;
22026;SDS011;11177;50.966;10.070;2023-03-11T11:10:57;5.68;;;1.00;;
22026;SDS011;11177;50.966;10.070;2023-03-11T11:13:26;1.88;;;0.70;;
22026;SDS011;11177;50.966;10.070;2023-03-11T11:16:00;2.58;;;0.88;;
22026;SDS011;11177;50.966;10.070;2023-03-11T11:21:30;2.00;;;1.00;;
22026;SDS011;11177;50.966;10.070;2023-03-11T11:24:31;4.00;;;0.88;;
22026;SDS011;11177;50.966;10.070;2023-03-11T11:29:44;4.75;;;0.75;;
22026;SDS011;11177;50.966;10.070;2023-03-11T11:34:57;2.47;;;0.82;;
22026;SDS011;11177;50.966;10.070;2023-03-11T11:37:34;4.00;;;0.90;;
22026;SDS011;11177;50.966;10.070;2023-03-11T11:42:55;2.25;;;0.77;;
22026;SDS011;11177;50.966;10.070;2023-03-11T11:48:46;1.08;;;0.70;;
22026;SDS011;11177;50.966;10.070;2023-03-11T11:51:17;1.88;;;0.75;;
22026;SDS011;11177;50.966;10.070;2023-03-11T11:56:23;1.88;;;0.50;;
22026;SDS011;11177;50.966;10.070;2023-03-11T11:58:51;1.90;;;0.90;;
22026;SDS011;11177;50.966;10.070;2023-03-11T12:03:56;3.53;;;0.80;;
22026;SDS011;11177;50.966;10.070;2023-03-11T12:12:18;2.28;;;0.70;;
22026;SDS011;11177;50.966;10.070;2023-03-11T12:15:07;1.65;;;0.52;;
22026;SDS011;11177;50.966;10.070;2023-03-11T12:17:43;1.58;;;0.52;;
22026;SDS011;11177;50.966;10.070;2023-03-11T12:20:14;1.27;;;0.65;;
22026;SDS011;11177;50.966;10.070;2023-03-11T12:23:09;2.80;;;0.43;;
22026;SDS011;11177;50.966;10.070;2023-03-11T12:27:39;1.45;;;0.60;;
22026;SDS011;11177;50.966;10.070;2023-03-11T12:28:57;1.92;;;0.90;;
22026;SDS011;11177;50.966;10.070;2023-03-11T12:31:37;2.53;;;0.80;;
22026;SDS011;11177;50.966;10.070;2023-03-11T12:34:05;5.07;;;1.00;;
22026;SDS011;11177;50.966;10.070;2023-03-11T12:36:37;2.70;;;0.80;;
22026;SDS011;11177;50.966;10.070;2023-03-11T12:39:06;1.45;;;0.70;;
22026;SDS011;11177;50.966;10.070;2023-03-11T12:41:42;2.78;;;0.77;;
22026;SDS011;11177;50.966;10.070;2023-03-11T12:44:25;1.05;;;0.60;;
22026;SDS011;11177;50.966;10.070;2023-03-11T12:49:31;5.50;;;0.98;;
22026;SDS011;11177;50.966;10.070;2023-03-11T12:52:06;2.53;;;0.73;;
22026;SDS011;11177;50.966;10.070;2023-03-11T12:54:43;1.77;;;1.10;;
22026;SDS011;11177;50.966;10.070;2023-03-11T12:57:34;1.30;;;1.00;;
22026;SDS011;11177;50.966;10.070;2023-03-11T13:00:05;5.65;;;1.02;;
22026;SDS011;11177;50.966;10.070;2023-03-11T13:05:57;2.72;;;0.68;;
22026;SDS011;11177;50.966;10.070;2023-03-11T13:11:37;3.33;;;0.70;;
22026;SDS011;11177;50.966;10.070;2023-03-11T13:14:10;2.30;;;0.52;;
22026;SDS011;11177;50.966;10.070;2023-03-11T13:16:47;1.52;;;0.50;;
22026;SDS011;11177;50.966;10.070;2023-03-11T13:19:33;2.15;;;0.70;;
22026;SDS011;11177;50.966;10.070;2023-03-11T13:22:03;3.75;;;0.73;;
22026;SDS011;11177;50.966;10.070;2023-03-11T13:24:45;1.23;;;0.60;;
22026;SDS011;11177;50.966;10.070;2023-03-11T13:27:19;0.98;;;0.68;;
22026;SDS011;11177;50.966;10.070;2023-03-11T13:30:13;1.98;;;0.60;;
22026;SDS011;11177;50.966;10.070;2023-03-11T13:33:06;4.05;;;0.95;;
22026;SDS011;11177;50.966;10.070;2023-03-11T13:36:02;2.47;;;0.70;;
22026;SDS011;11177;50.966;10.070;2023-03-11T13:39:19;1.67;;;0.65;;
22026;SDS011;11177;50.966;10.070;2023-03-11T13:41:50;2.33;;;0.60;;
22026;SDS011;11177;50.966;10.070;2023-03-11T13:47:12;1.88;;;0.70;;
22026;SDS011;11177;50.966;10.070;2023-03-11T13:49:44;4.35;;;0.80;;
22026;SDS011;11177;50.966;10.070;2023-03-11T13:52:26;1.52;;;0.47;;
22026;SDS011;11177;50.966;10.070;2023-03-11T13:58:21;1.13;;;0.70;;
22026;SDS011;11177;50.966;10.070;2023-03-11T14:00:59;5.18;;;0.70;;
22026;SDS011;11177;50.966;10.070;2023-03-11T14:03:28;2.08;;;0.60;;
22026;SDS011;11177;50.966;10.070;2023-03-11T14:06:04;4.60;;;0.90;;
22026;SDS011;11177;50.966;10.070;2023-03-11T14:11:02;3.17;;;0.60;;
22026;SDS011;11177;50.966;10.070;2023-03-11T14:13:50;5.95;;;0.93;;
22026;SDS011;11177;50.966;10.070;2023-03-11T14:16:19;5.50;;;0.90;;
22026;SDS011;11177;50.966;10.070;2023-03-11T14:19:00;3.83;;;0.70;;
22026;SDS011;11177;50.966;10.070;2023-03-11T14:21:34;5.78;;;1.10;;
22026;SDS011;11177;50.966;10.070;2023-03-11T14:24:01;2.20;;;0.95;;
22026;SDS011;11177;50.966;10.070;2023-03-11T14:26:32;3.22;;;0.82;;
22026;SDS011;11177;50.966;10.070;2023-03-11T14:29:08;3.28;;;0.85;;
22026;SDS011;11177;50.966;10.070;2023-03-11T14:31:38;2.70;;;0.80;;
22026;SDS011;11177;50.966;10.070;2023-03-11T14:34:17;2.60;;;0.63;;
22026;SDS011;11177;50.966;10.070;2023-03-11T14:36:46;3.85;;;0.85;;
22026;SDS011;11177;50.966;10.070;2023-03-11T14:41:57;2.88;;;1.10;;
22026;SDS011;11177;50.966;10.070;2023-03-11T14:44:27;3.15;;;1.00;;
22026;SDS011;11177;50.966;10.070;2023-03-11T14:46:57;2.50;;;0.65;;
22026;SDS011;11177;50.966;10.070;2023-03-11T14:49:55;3.35;;;0.68;;
22026;SDS011;11177;50.966;10.070;2023-03-11T14:52:36;1.77;;;0.52;;
22026;SDS011;11177;50.966;10.070;2023-03-11T14:55:16;2.40;;;0.77;;
22026;SDS011;11177;50.966;10.070;2023-03-11T14:57:57;2.90;;;0.90;;
22026;SDS011;11177;50.966;10.070;2023-03-11T15:00:47;3.22;;;0.57;;
22026;SDS011;11177;50.966;10.070;2023-03-11T15:03:22;1.42;;;0.60;;
22026;SDS011;11177;50.966;10.070;2023-03-11T15:05:58;1.63;;;0.82;;
22026;SDS011;11177;50.966;10.070;2023-03-11T15:08:30;2.13;;;0.80;;
22026;SDS011;11177;50.966;10.070;2023-03-11T15:11:19;3.10;;;0.75;;
22026;SDS011;11177;50.966;10.070;2023-03-11T15:13:50;3.58;;;1.10;;
22026;SDS011;11177;50.966;10.070;2023-03-11T15:16:34;4.72;;;2.42;;
22026;SDS011;11177;50.966;10.070;2023-03-11T15:22:05;1.40;;;0.77;;
22026;SDS011;11177;50.966;10.070;2023-03-11T15:24:53;7.40;;;1.10;;
22026;SDS011;11177;50.966;10.070;2023-03-11T15:27:29;1.40;;;0.73;;
22026;SDS011;11177;50.966;10.070;2023-03-11T15:30:01;3.13;;;1.50;;
22026;SDS011;11177;50.966;10.070;2023-03-11T15:32:40;3.38;;;1.00;;
22026;SDS011;11177;50.966;10.070;2023-03-11T15:37:44;3.88;;;0.80;;
22026;SDS011;11177;50.966;10.070;2023-03-11T15:40:23;2.47;;;0.80;;
22026;SDS011;11177;50.966;10.070;2023-03-11T15:43:44;2.78;;;1.50;;
22026;SDS011;11177;50.966;10.070;2023-03-11T15:46:09;2.80;;;1.23;;
22026;SDS011;11177;50.966;10.070;2023-03-11T15:48:37;1.77;;;0.80;;
22026;SDS011;11177;50.966;10.070;2023-03-11T15:51:05;4.45;;;1.05;;
22026;SDS011;11177;50.966;10.070;2023-03-11T15:53:32;7.95;;;3.13;;
22026;SDS011;11177;50.966;10.070;2023-03-11T15:56:05;3.03;;;1.05;;
22026;SDS011;11177;50.966;10.070;2023-03-11T15:58:37;10.48;;;4.20;;
22026;SDS011;11177;50.966;10.070;2023-03-11T16:01:04;5.10;;;2.22;;
22026;SDS011;11177;50.966;10.070;2023-03-11T16:03:31;3.08;;;1.00;;
22026;SDS011;11177;50.966;10.070;2023-03-11T16:05:58;3.95;;;1.45;;
22026;SDS011;11177;50.966;10.070;2023-03-11T16:08:25;2.20;;;1.30;;
22026;SDS011;11177;50.966;10.070;2023-03-11T16:10:51;3.40;;;1.77;;
22026;SDS011;11177;50.966;10.070;2023-03-11T16:13:18;3.55;;;2.40;;
22026;SDS011;11177;50.966;10.070;2023-03-11T16:15:45;4.95;;;1.73;;
22026;SDS011;11177;50.966;10.070;2023-03-11T16:18:12;1.75;;;0.68;;
22026;SDS011;11177;50.966;10.070;2023-03-11T16:20:48;1.52;;;0.88;;
22026;SDS011;11177;50.966;10.070;2023-03-11T16:23:20;5.18;;;0.80;;
22026;SDS011;11177;50.966;10.070;2023-03-11T16:25:55;1.98;;;0.70;;